createdAt,value
2022-12-23T00:00:28.634Z,3.83
2022-12-23T00:02:55.480Z,3.85
2022-12-23T00:05:22.660Z,3.88
2022-12-23T00:07:49.291Z,3.84
2022-12-23T00:10:15.967Z,3.86
2022-12-23T00:13:01.464Z,3.91
2022-12-23T00:15:28.139Z,3.88
2022-12-23T00:17:54.764Z,3.74
2022-12-23T00:20:21.535Z,3.84
2022-12-23T00:23:06.062Z,3.66
2022-12-23T00:25:40.960Z,3.70
2022-12-23T00:28:10.201Z,3.67
2022-12-23T00:30:57.148Z,3.63
2022-12-23T00:33:26.408Z,3.70
2022-12-23T00:35:53.364Z,3.79
2022-12-23T00:38:39.569Z,3.77
2022-12-23T00:41:28.897Z,3.73
2022-12-23T00:43:55.605Z,3.72
2022-12-23T00:46:22.222Z,3.67
2022-12-23T00:49:07.797Z,3.65
2022-12-23T00:51:34.472Z,3.74
2022-12-23T00:54:01.545Z,3.84
2022-12-23T00:56:28.388Z,3.81
2022-12-23T00:58:55.044Z,3.79
2022-12-23T01:01:41.042Z,3.67
2022-12-23T01:04:27.790Z,3.77
2022-12-23T01:06:54.755Z,3.72
2022-12-23T01:09:21.369Z,3.69
2022-12-23T01:11:48.089Z,3.69
2022-12-23T01:14:14.761Z,3.68
2022-12-23T01:16:42.023Z,3.66
2022-12-23T01:19:08.785Z,3.73
2022-12-23T01:21:36.085Z,3.75
2022-12-23T01:24:02.645Z,3.82
2022-12-23T01:26:29.300Z,3.73
2022-12-23T01:28:57.487Z,3.86
2022-12-23T01:31:26.247Z,3.88
2022-12-23T01:33:53.666Z,3.87
2022-12-23T01:36:21.220Z,3.81
2022-12-23T01:38:48.307Z,3.87
2022-12-23T01:41:37.162Z,3.85
2022-12-23T01:44:24.069Z,3.85
2022-12-23T01:46:51.110Z,3.81
2022-12-23T01:49:17.791Z,3.73
2022-12-23T01:51:44.451Z,3.66
2022-12-23T01:54:11.071Z,3.60
2022-12-23T01:56:39.872Z,3.66
2022-12-23T01:59:10.033Z,3.70
2022-12-23T02:01:55.755Z,3.74
2022-12-23T02:04:25.635Z,3.67
2022-12-23T02:07:11.052Z,3.59
2022-12-23T02:09:40.016Z,3.54
2022-12-23T02:12:30.686Z,3.51
2022-12-23T02:15:42.639Z,3.57
2022-12-23T02:18:40.972Z,3.57
2022-12-23T02:21:23.035Z,3.64
2022-12-23T02:24:08.639Z,3.55
2022-12-23T02:27:02.039Z,3.46
2022-12-23T02:30:02.735Z,3.40
2022-12-23T02:32:41.523Z,3.33
2022-12-23T02:35:13.498Z,3.45
2022-12-23T02:38:11.277Z,3.45
2022-12-23T02:40:57.184Z,3.49
2022-12-23T02:43:32.605Z,3.46
2022-12-23T02:46:07.201Z,3.60
2022-12-23T02:48:44.789Z,3.62
2022-12-23T02:51:14.548Z,3.56
2022-12-23T02:53:56.897Z,3.49
2022-12-23T02:56:26.095Z,3.56
2022-12-23T02:59:05.160Z,3.51
2022-12-23T03:01:34.723Z,3.56
2022-12-23T03:04:01.776Z,3.57
2022-12-23T03:06:28.341Z,3.45
2022-12-23T03:08:58.360Z,3.42
2022-12-23T03:12:14.179Z,3.50
2022-12-23T03:14:59.613Z,3.55
2022-12-23T03:17:41.793Z,3.46
2022-12-23T03:20:21.066Z,3.48
2022-12-23T03:22:59.548Z,3.44
2022-12-23T03:25:34.454Z,3.37
2022-12-23T03:28:48.972Z,3.20
2022-12-23T03:31:23.226Z,3.24
2022-12-23T03:33:56.519Z,3.23
2022-12-23T03:36:29.208Z,3.24
2022-12-23T03:38:57.022Z,3.26
2022-12-23T03:41:41.543Z,3.38
2022-12-23T03:44:19.076Z,3.20
2022-12-23T03:47:03.413Z,3.15
2022-12-23T03:49:42.866Z,3.21
2022-12-23T03:52:21.020Z,3.21
2022-12-23T03:55:01.835Z,3.28
2022-12-23T03:57:37.019Z,3.20
2022-12-23T04:00:04.477Z,3.19
2022-12-23T04:02:43.526Z,3.13
2022-12-23T04:05:29.885Z,3.06
2022-12-23T04:08:19.484Z,3.20
2022-12-23T04:10:46.938Z,3.16
2022-12-23T04:13:13.703Z,3.12
2022-12-23T04:15:42.015Z,2.97
2022-12-23T04:18:10.301Z,3.10
2022-12-23T04:20:37.628Z,3.04
2022-12-23T04:23:04.842Z,2.96
2022-12-23T04:25:31.638Z,2.97
2022-12-23T04:27:58.251Z,3.09
2022-12-23T04:30:29.705Z,3.06
2022-12-23T04:33:00.311Z,3.00
2022-12-23T04:35:26.914Z,3.05
2022-12-23T04:37:53.643Z,3.05
2022-12-23T04:40:20.243Z,2.99
2022-12-23T04:42:46.928Z,2.90
2022-12-23T04:45:13.646Z,2.99
2022-12-23T04:47:40.717Z,3.03
2022-12-23T04:50:08.445Z,3.05
2022-12-23T04:52:35.142Z,3.04
2022-12-23T04:55:01.747Z,2.97
2022-12-23T04:57:28.517Z,2.82
2022-12-23T04:59:55.101Z,2.75
2022-12-23T05:02:21.816Z,2.78
2022-12-23T05:04:48.498Z,2.77
2022-12-23T05:07:15.228Z,2.81
2022-12-23T05:09:41.817Z,2.85
2022-12-23T05:12:08.550Z,2.81
2022-12-23T05:14:35.435Z,2.68
2022-12-23T05:17:07.110Z,2.85
2022-12-23T05:19:34.598Z,3.00
2022-12-23T05:22:01.201Z,2.91
2022-12-23T05:24:27.871Z,2.83
2022-12-23T05:26:59.749Z,2.88
2022-12-23T05:29:27.600Z,2.93
2022-12-23T05:31:54.401Z,2.96
2022-12-23T05:34:21.502Z,2.86
2022-12-23T05:36:48.133Z,2.89
2022-12-23T05:39:14.788Z,2.95
2022-12-23T05:41:41.363Z,3.01
2022-12-23T05:44:08.012Z,2.92
2022-12-23T05:46:34.860Z,2.90
2022-12-23T05:49:01.676Z,2.91
2022-12-23T05:51:28.372Z,2.96
2022-12-23T05:53:55.148Z,2.92
2022-12-23T05:56:21.747Z,2.97
2022-12-23T05:58:48.330Z,2.97
2022-12-23T06:01:14.880Z,2.94
2022-12-23T06:03:41.775Z,2.96
2022-12-23T06:06:08.543Z,2.88
2022-12-23T06:08:35.186Z,2.81
2022-12-23T06:11:05.551Z,2.93
2022-12-23T06:13:32.281Z,2.85
2022-12-23T06:15:59.075Z,2.83
2022-12-23T06:18:25.839Z,2.81
2022-12-23T06:20:52.428Z,2.95
2022-12-23T06:23:19.056Z,3.03
2022-12-23T06:25:45.775Z,2.96
2022-12-23T06:28:12.680Z,2.87
2022-12-23T06:30:39.227Z,2.87
2022-12-23T06:33:05.872Z,2.97
2022-12-23T06:35:32.531Z,2.97
2022-12-23T06:37:59.189Z,2.91
2022-12-23T06:40:25.861Z,2.93
2022-12-23T06:42:52.542Z,2.83
2022-12-23T06:45:19.231Z,2.91
2022-12-23T06:47:45.931Z,2.88
2022-12-23T06:50:12.554Z,2.86
2022-12-23T06:52:39.455Z,2.97
2022-12-23T06:55:06.478Z,3.02
2022-12-23T06:57:33.208Z,3.06
2022-12-23T06:59:59.792Z,3.09
2022-12-23T07:02:26.558Z,3.05
2022-12-23T07:04:53.265Z,3.03
2022-12-23T07:07:19.961Z,3.01
2022-12-23T07:09:46.702Z,2.95
2022-12-23T07:12:13.456Z,3.03
2022-12-23T07:14:40.054Z,3.02
2022-12-23T07:17:06.961Z,2.94
2022-12-23T07:19:34.141Z,2.96
2022-12-23T07:22:00.813Z,3.01
2022-12-23T07:24:27.497Z,2.96
2022-12-23T07:26:55.828Z,2.95
2022-12-23T07:29:22.461Z,2.98
2022-12-23T07:31:49.495Z,2.94
2022-12-23T07:34:16.229Z,2.97
2022-12-23T07:36:42.881Z,3.01
2022-12-23T07:39:09.778Z,3.04
2022-12-23T07:41:36.509Z,3.03
2022-12-23T07:44:07.193Z,3.07
2022-12-23T07:46:33.920Z,3.04
2022-12-23T07:49:00.583Z,3.14
2022-12-23T07:51:27.236Z,3.15
2022-12-23T07:53:53.851Z,3.19
2022-12-23T07:56:20.848Z,3.22
2022-12-23T07:58:51.717Z,3.28
2022-12-23T08:01:19.219Z,3.34
2022-12-23T08:03:46.895Z,3.30
2022-12-23T08:06:15.236Z,3.35
2022-12-23T08:08:44.550Z,3.43
2022-12-23T08:11:13.021Z,3.49
2022-12-23T08:13:41.501Z,3.51
2022-12-23T08:16:09.764Z,3.49
2022-12-23T08:18:39.174Z,3.50
2022-12-23T08:21:14.628Z,3.61
2022-12-23T08:23:42.091Z,3.73
2022-12-23T08:26:21.448Z,3.75
2022-12-23T08:28:49.577Z,3.86
2022-12-23T08:31:25.640Z,3.90
2022-12-23T08:33:55.098Z,3.86
2022-12-23T08:36:33.257Z,3.83
2022-12-23T08:39:03.462Z,3.91
2022-12-23T08:41:33.444Z,3.93
2022-12-23T08:44:00.337Z,3.94
2022-12-23T08:46:27.219Z,4.04
2022-12-23T08:48:55.062Z,4.05
2022-12-23T08:51:23.588Z,3.99
2022-12-23T08:53:56.256Z,3.91
2022-12-23T08:56:32.913Z,3.94
2022-12-23T08:59:00.603Z,3.97
2022-12-23T09:01:29.905Z,4.02
2022-12-23T09:03:56.855Z,4.12
2022-12-23T09:06:30.390Z,4.12
2022-12-23T09:08:58.160Z,4.13
2022-12-23T09:11:27.078Z,4.20
2022-12-23T09:13:54.753Z,4.22
2022-12-23T09:16:21.953Z,4.22
2022-12-23T09:18:48.820Z,4.23
2022-12-23T09:21:19.547Z,4.26
2022-12-23T09:23:47.108Z,4.28
2022-12-23T09:26:22.854Z,4.45
2022-12-23T09:28:49.944Z,4.43
2022-12-23T09:31:17.103Z,4.45
2022-12-23T09:33:47.940Z,4.51
2022-12-23T09:36:14.998Z,4.51
2022-12-23T09:38:41.743Z,4.59
2022-12-23T09:41:29.950Z,4.61
2022-12-23T09:44:14.628Z,4.63
2022-12-23T09:47:05.707Z,4.65
2022-12-23T09:49:33.715Z,4.68
2022-12-23T09:52:05.697Z,4.73
2022-12-23T09:54:45.993Z,4.87
2022-12-23T09:57:58.678Z,5.11
2022-12-23T10:00:26.700Z,5.00
2022-12-23T10:03:28.342Z,4.93
2022-12-23T10:06:10.354Z,4.86
2022-12-23T10:08:42.200Z,4.80
2022-12-23T10:11:41.389Z,4.90
2022-12-23T10:14:20.491Z,5.09
2022-12-23T10:16:52.768Z,5.15
2022-12-23T10:19:29.884Z,5.18
2022-12-23T10:22:07.269Z,5.24
2022-12-23T10:24:40.840Z,5.45
2022-12-23T10:27:37.108Z,5.74
2022-12-23T10:30:34.357Z,5.85
2022-12-23T10:33:17.151Z,6.01
2022-12-23T10:35:53.359Z,6.11
2022-12-23T10:38:41.656Z,6.22
2022-12-23T10:41:39.221Z,6.35
2022-12-23T10:44:30.106Z,6.34
2022-12-23T10:47:33.231Z,6.31
2022-12-23T10:50:09.858Z,6.27
2022-12-23T10:52:40.049Z,6.32
2022-12-23T10:55:15.364Z,6.42
2022-12-23T10:57:42.075Z,6.53
2022-12-23T11:00:22.341Z,6.64
2022-12-23T11:03:04.300Z,6.68
2022-12-23T11:05:33.361Z,6.74
2022-12-23T11:08:01.155Z,6.69
2022-12-23T11:10:33.055Z,6.75
2022-12-23T11:13:00.660Z,6.84
2022-12-23T11:15:40.440Z,6.79
2022-12-23T11:18:14.091Z,6.72
2022-12-23T11:20:45.088Z,6.68
2022-12-23T11:23:33.038Z,6.83
2022-12-23T11:26:09.860Z,7.01
2022-12-23T11:28:40.698Z,7.03
2022-12-23T11:31:11.806Z,7.09
2022-12-23T11:33:52.041Z,7.14
2022-12-23T11:36:24.607Z,7.23
2022-12-23T11:39:33.302Z,7.18
2022-12-23T11:42:11.738Z,7.20
2022-12-23T11:44:43.191Z,7.11
2022-12-23T11:47:22.020Z,7.09
2022-12-23T11:49:54.253Z,7.10
2022-12-23T11:52:29.979Z,7.09
2022-12-23T11:54:59.454Z,7.17
2022-12-23T11:57:43.033Z,7.30
2022-12-23T12:00:21.025Z,7.48
2022-12-23T12:02:52.689Z,7.61
2022-12-23T12:05:23.095Z,7.67
2022-12-23T12:07:51.847Z,7.80
2022-12-23T12:10:25.255Z,7.85
2022-12-23T12:12:56.913Z,7.85
2022-12-23T12:15:53.423Z,7.98
2022-12-23T12:18:21.177Z,8.08
2022-12-23T12:20:53.809Z,8.06
2022-12-23T12:23:37.712Z,8.14
2022-12-23T12:26:24.431Z,8.21
2022-12-23T12:28:59.317Z,8.22
2022-12-23T12:31:34.068Z,8.22
2022-12-23T12:34:14.595Z,8.24
2022-12-23T12:36:50.763Z,8.32
2022-12-23T12:39:22.761Z,8.32
2022-12-23T12:42:00.189Z,8.39
2022-12-23T12:44:47.472Z,8.42
2022-12-23T12:47:53.929Z,8.51
2022-12-23T12:50:27.933Z,8.75
2022-12-23T12:52:59.618Z,8.88
2022-12-23T12:55:30.677Z,8.96
2022-12-23T12:57:57.675Z,8.96
2022-12-23T13:00:25.302Z,8.95
2022-12-23T13:03:12.134Z,8.98
2022-12-23T13:05:54.654Z,8.96
2022-12-23T13:08:46.235Z,8.93
2022-12-23T13:11:28.593Z,8.87
2022-12-23T13:14:40.181Z,8.81
2022-12-23T13:17:24.443Z,8.79
2022-12-23T13:20:09.657Z,8.72
2022-12-23T13:22:38.579Z,8.76
2022-12-23T13:25:11.256Z,8.77
2022-12-23T13:27:58.009Z,8.83
2022-12-23T13:30:32.076Z,8.81
2022-12-23T13:33:17.477Z,8.73
2022-12-23T13:36:06.569Z,8.68
2022-12-23T13:39:05.490Z,8.57
2022-12-23T13:41:48.925Z,8.48
2022-12-23T13:44:18.758Z,8.49
2022-12-23T13:47:00.561Z,8.40
2022-12-23T13:49:56.358Z,8.44
2022-12-23T13:52:44.297Z,8.37
2022-12-23T13:55:13.716Z,8.36
2022-12-23T13:58:09.608Z,8.33
2022-12-23T14:00:36.468Z,8.29
2022-12-23T14:03:03.398Z,8.25
2022-12-23T14:05:33.222Z,8.23
2022-12-23T14:08:02.513Z,8.24
2022-12-23T14:10:30.777Z,8.28
2022-12-23T14:13:07.458Z,8.25
2022-12-23T14:16:12.673Z,8.22
2022-12-23T14:19:10.423Z,8.17
2022-12-23T14:21:58.309Z,8.19
2022-12-23T14:25:02.818Z,8.10
2022-12-23T14:27:35.295Z,8.00
2022-12-23T14:30:32.969Z,8.03
2022-12-23T14:33:18.033Z,8.00
2022-12-23T14:35:44.701Z,7.98
2022-12-23T14:38:14.162Z,8.01
2022-12-23T14:40:43.807Z,7.97
2022-12-23T14:43:22.609Z,8.00
2022-12-23T14:45:51.567Z,7.91
2022-12-23T14:48:33.428Z,7.92
2022-12-23T14:51:09.527Z,7.91
2022-12-23T14:53:58.011Z,7.90
2022-12-23T14:56:40.350Z,7.82
2022-12-23T14:59:16.936Z,7.71
2022-12-23T15:02:02.794Z,7.58
2022-12-23T15:04:50.951Z,7.55
2022-12-23T15:07:34.398Z,7.52
2022-12-23T15:10:08.688Z,7.55
2022-12-23T15:12:42.126Z,7.56
2022-12-23T15:15:25.136Z,7.54
2022-12-23T15:18:12.313Z,7.54
2022-12-23T15:20:39.561Z,7.57
2022-12-23T15:23:12.080Z,7.47
2022-12-23T15:25:43.698Z,7.38
2022-12-23T15:28:18.356Z,7.35
2022-12-23T15:30:56.747Z,7.22
2022-12-23T15:34:01.332Z,7.20
2022-12-23T15:36:14.976Z,7.10
2022-12-23T15:38:42.056Z,7.09
2022-12-23T15:41:17.072Z,6.87
2022-12-23T15:43:44.872Z,6.89
2022-12-23T15:46:23.410Z,6.82
2022-12-23T15:48:54.174Z,6.77
2022-12-23T15:52:06.246Z,6.70
2022-12-23T15:54:34.935Z,6.71
2022-12-23T15:57:03.402Z,6.70
2022-12-23T15:59:39.577Z,6.58
2022-12-23T16:02:58.479Z,6.60
2022-12-23T16:05:05.539Z,6.60
2022-12-23T16:07:35.757Z,6.49
2022-12-23T16:10:11.693Z,6.50
2022-12-23T16:12:40.091Z,6.51
2022-12-23T16:15:32.393Z,6.58
2022-12-23T16:18:34.047Z,6.52
2022-12-23T16:21:04.041Z,6.49
2022-12-23T16:23:35.130Z,6.36
2022-12-23T16:26:02.952Z,6.42
2022-12-23T16:28:42.762Z,6.37
2022-12-23T16:31:10.753Z,6.38
2022-12-23T16:33:42.481Z,6.39
2022-12-23T16:36:27.351Z,6.40
2022-12-23T16:39:23.921Z,6.29
2022-12-23T16:41:50.896Z,6.22
2022-12-23T16:44:17.549Z,6.20
2022-12-23T16:46:48.571Z,6.11
2022-12-23T16:49:20.687Z,6.07
2022-12-23T16:51:47.699Z,6.11
2022-12-23T16:54:17.698Z,6.03
2022-12-23T16:56:46.831Z,6.09
2022-12-23T16:59:14.146Z,6.03
2022-12-23T17:01:44.765Z,6.08
2022-12-23T17:04:12.435Z,6.02
2022-12-23T17:06:40.733Z,6.03
2022-12-23T17:09:10.172Z,6.04
2022-12-23T17:11:49.489Z,6.13
2022-12-23T17:14:16.167Z,6.10
2022-12-23T17:16:43.898Z,6.07
2022-12-23T17:19:11.474Z,5.99
2022-12-23T17:21:39.769Z,5.94
2022-12-23T17:24:12.481Z,5.94
2022-12-23T17:26:39.974Z,5.92
2022-12-23T17:29:06.900Z,6.01
2022-12-23T17:31:34.654Z,5.97
2022-12-23T17:34:02.217Z,5.96
2022-12-23T17:36:29.454Z,5.94
2022-12-23T17:38:56.128Z,5.94
2022-12-23T17:41:31.414Z,5.99
2022-12-23T17:43:58.833Z,5.98
2022-12-23T17:46:26.883Z,5.92
2022-12-23T17:48:54.068Z,5.84
2022-12-23T17:51:22.639Z,5.88
2022-12-23T17:53:56.840Z,5.82
2022-12-23T17:56:25.106Z,5.74
2022-12-23T17:58:52.150Z,5.77
2022-12-23T18:01:26.482Z,5.65
2022-12-23T18:03:56.460Z,5.51
2022-12-23T18:06:24.760Z,5.66
2022-12-23T18:08:51.796Z,5.64
2022-12-23T18:11:22.648Z,5.64
2022-12-23T18:13:52.156Z,5.76
2022-12-23T18:16:18.915Z,5.77
2022-12-23T18:18:46.864Z,5.78
2022-12-23T18:21:20.344Z,5.74
2022-12-23T18:23:47.287Z,5.64
2022-12-23T18:26:17.494Z,5.50
2022-12-23T18:28:44.664Z,5.59
2022-12-23T18:31:20.996Z,5.43
2022-12-23T18:33:48.128Z,5.34
2022-12-23T18:36:29.149Z,5.44
2022-12-23T18:38:57.245Z,5.42
2022-12-23T18:41:25.344Z,5.45
2022-12-23T18:43:52.795Z,5.34
2022-12-23T18:46:22.975Z,5.31
2022-12-23T18:48:49.842Z,5.34
2022-12-23T18:51:18.023Z,5.25
2022-12-23T18:53:45.766Z,5.29
2022-12-23T18:56:19.144Z,5.37
2022-12-23T18:58:45.992Z,5.33
2022-12-23T19:01:14.113Z,5.44
2022-12-23T19:03:41.999Z,5.40
2022-12-23T19:06:11.867Z,5.38
2022-12-23T19:08:39.499Z,5.31
2022-12-23T19:11:18.042Z,5.22
2022-12-23T19:13:45.231Z,5.17
2022-12-23T19:16:17.272Z,5.12
2022-12-23T19:18:46.021Z,5.17
2022-12-23T19:21:12.870Z,5.18
2022-12-23T19:23:41.117Z,5.21
2022-12-23T19:26:13.379Z,5.35
2022-12-23T19:28:41.648Z,5.41
2022-12-23T19:31:09.208Z,5.44
2022-12-23T19:33:40.440Z,5.46
2022-12-23T19:36:11.544Z,5.39
2022-12-23T19:38:39.164Z,5.38
2022-12-23T19:41:07.442Z,5.34
2022-12-23T19:43:34.962Z,5.32
2022-12-23T19:46:04.643Z,5.29
2022-12-23T19:48:31.346Z,5.33
2022-12-23T19:50:58.983Z,5.27
2022-12-23T19:53:26.542Z,5.23
2022-12-23T19:56:02.412Z,5.28
2022-12-23T19:58:33.306Z,5.41
2022-12-23T20:01:11.973Z,5.37
2022-12-23T20:03:39.668Z,5.30
2022-12-23T20:06:08.143Z,5.31
2022-12-23T20:08:35.213Z,5.21
2022-12-23T20:11:04.153Z,5.13
2022-12-23T20:13:30.938Z,5.08
2022-12-23T20:15:57.933Z,5.08
2022-12-23T20:18:24.750Z,5.04
2022-12-23T20:20:51.593Z,5.07
2022-12-23T20:23:18.275Z,5.04
2022-12-23T20:25:45.397Z,5.09
2022-12-23T20:28:12.293Z,5.06
2022-12-23T20:30:39.038Z,5.12
2022-12-23T20:33:05.923Z,5.15
2022-12-23T20:35:32.530Z,5.11
2022-12-23T20:37:59.288Z,5.09
2022-12-23T20:40:25.911Z,4.94
2022-12-23T20:42:52.703Z,4.97
2022-12-23T20:45:20.928Z,4.88
2022-12-23T20:47:47.771Z,5.09
2022-12-23T20:50:14.724Z,5.00
2022-12-23T20:52:41.431Z,4.99
2022-12-23T20:55:08.495Z,4.98
2022-12-23T20:57:35.969Z,4.88
2022-12-23T21:00:05.469Z,4.83
2022-12-23T21:02:32.295Z,4.82
2022-12-23T21:04:58.866Z,4.93
2022-12-23T21:07:26.356Z,4.83
2022-12-23T21:09:52.926Z,4.81
2022-12-23T21:12:19.681Z,4.80
2022-12-23T21:14:46.397Z,4.78
2022-12-23T21:17:13.175Z,4.92
2022-12-23T21:19:39.783Z,4.94
2022-12-23T21:22:06.513Z,4.87
2022-12-23T21:24:33.118Z,4.91
2022-12-23T21:26:59.798Z,4.76
2022-12-23T21:29:26.736Z,4.70
2022-12-23T21:31:53.655Z,4.62
2022-12-23T21:34:20.590Z,4.65
2022-12-23T21:36:47.445Z,4.69
2022-12-23T21:39:16.133Z,4.69
2022-12-23T21:41:43.312Z,4.69
2022-12-23T21:44:11.705Z,4.75
2022-12-23T21:46:38.440Z,4.66
2022-12-23T21:49:05.222Z,4.60
2022-12-23T21:51:39.695Z,4.54
2022-12-23T21:54:07.720Z,4.48
2022-12-23T21:56:34.538Z,4.59
2022-12-23T21:59:03.513Z,4.69
2022-12-23T22:01:31.353Z,4.67
2022-12-23T22:03:58.542Z,4.66
2022-12-23T22:06:32.003Z,4.71
2022-12-23T22:08:59.878Z,4.64
2022-12-23T22:11:29.616Z,4.58
2022-12-23T22:13:58.199Z,4.50
2022-12-23T22:16:26.870Z,4.47
2022-12-23T22:18:55.202Z,4.54
2022-12-23T22:21:24.703Z,4.46
2022-12-23T22:23:52.754Z,4.51
2022-12-23T22:26:25.363Z,4.38
2022-12-23T22:28:59.095Z,4.37
2022-12-23T22:31:47.599Z,4.51
2022-12-23T22:34:17.395Z,4.52
2022-12-23T22:36:44.844Z,4.42
2022-12-23T22:39:19.968Z,4.28
2022-12-23T22:41:48.844Z,4.34
2022-12-23T22:44:16.288Z,4.31
2022-12-23T22:46:43.369Z,4.20
2022-12-23T22:49:13.961Z,4.10
2022-12-23T22:51:42.571Z,4.08
2022-12-23T22:54:10.063Z,4.10
2022-12-23T22:56:37.570Z,4.03
2022-12-23T22:59:04.789Z,4.08
2022-12-23T23:01:34.087Z,4.01
2022-12-23T23:04:03.000Z,4.07
2022-12-23T23:06:37.813Z,4.09
2022-12-23T23:09:11.608Z,4.00
2022-12-23T23:11:38.644Z,3.93
2022-12-23T23:14:05.523Z,3.88
2022-12-23T23:16:33.333Z,3.79
2022-12-23T23:19:00.328Z,4.02
2022-12-23T23:21:27.287Z,4.05
2022-12-23T23:23:54.016Z,4.01
2022-12-23T23:26:21.160Z,3.96
2022-12-23T23:28:48.341Z,4.04
2022-12-23T23:34:02.031Z,3.97
2022-12-23T23:36:28.741Z,4.08
2022-12-23T23:38:55.683Z,4.04
2022-12-23T23:41:23.556Z,4.07
2022-12-23T23:43:51.600Z,4.11
2022-12-23T23:46:18.364Z,4.06
2022-12-23T23:48:45.172Z,4.05
2022-12-23T23:51:12.728Z,4.01
2022-12-23T23:53:40.201Z,3.90
2022-12-23T23:56:07.865Z,3.89
2022-12-23T23:58:36.241Z,3.85
